Muddy Creek Forks, Pennsylvania
Current Conditions -  °F | °C
As of 9:53 PM on Thursday 27 Nov 2014 (Local Time) from KLNS Reporting Station
Overcast Overcast  
Wind Chill: 24°   Ceiling: 8000
Heat Index: 29°   Visibility: 7mi
Dew Point: 27°   Wind: 5mph
Humidity: 92%   Direction: 290°WNW
Pressure: 30.11"   Gusts: NA
Location:  39.8258°N, 76.3995°W
Report Text: KLNS 280253Z 29004KT 7SM OVC080 M02/M03 A3011 RMK AO2 SLP200 T10171028 53007
Loading
Personal Weather Stations






























Interactive Weather Map New forecast layout! Learn more

10-Day Weather Forecast

Advertisements
Track Severe Weather on mobile